sensor_id;sensor_type;location;lat;lon;timestamp;P1;durP1;ratioP1;P2;durP2;ratioP2
68509;SDS011;55512;50.102;19.958;2022-10-16T00:00:39;16.50;;;11.20;;
68509;SDS011;55512;50.102;19.958;2022-10-16T00:03:07;16.80;;;11.20;;
68509;SDS011;55512;50.102;19.958;2022-10-16T00:05:41;18.00;;;11.20;;
68509;SDS011;55512;50.102;19.958;2022-10-16T00:08:09;15.70;;;10.40;;
68509;SDS011;55512;50.102;19.958;2022-10-16T00:10:36;15.90;;;11.00;;
68509;SDS011;55512;50.102;19.958;2022-10-16T00:13:01;15.70;;;10.70;;
68509;SDS011;55512;50.102;19.958;2022-10-16T00:15:27;18.40;;;11.00;;
68509;SDS011;55512;50.102;19.958;2022-10-16T00:17:53;13.50;;;9.80;;
68509;SDS011;55512;50.102;19.958;2022-10-16T00:20:18;18.60;;;11.10;;
68509;SDS011;55512;50.102;19.958;2022-10-16T00:22:43;18.10;;;10.90;;
68509;SDS011;55512;50.102;19.958;2022-10-16T00:25:09;18.50;;;10.70;;
68509;SDS011;55512;50.102;19.958;2022-10-16T00:27:34;16.00;;;10.90;;
68509;SDS011;55512;50.102;19.958;2022-10-16T00:30:00;15.70;;;9.70;;
68509;SDS011;55512;50.102;19.958;2022-10-16T00:32:26;16.70;;;10.90;;
68509;SDS011;55512;50.102;19.958;2022-10-16T00:34:51;16.00;;;10.50;;
68509;SDS011;55512;50.102;19.958;2022-10-16T00:37:20;17.90;;;10.50;;
68509;SDS011;55512;50.102;19.958;2022-10-16T00:39:45;16.90;;;11.40;;
68509;SDS011;55512;50.102;19.958;2022-10-16T00:42:16;17.80;;;11.00;;
68509;SDS011;55512;50.102;19.958;2022-10-16T00:47:42;15.40;;;10.20;;
68509;SDS011;55512;50.102;19.958;2022-10-16T00:50:33;16.80;;;10.40;;
68509;SDS011;55512;50.102;19.958;2022-10-16T00:53:01;16.80;;;10.40;;
68509;SDS011;55512;50.102;19.958;2022-10-16T00:55:28;14.80;;;10.10;;
68509;SDS011;55512;50.102;19.958;2022-10-16T00:57:55;16.50;;;10.70;;
68509;SDS011;55512;50.102;19.958;2022-10-16T01:00:25;15.30;;;10.70;;
68509;SDS011;55512;50.102;19.958;2022-10-16T01:03:01;17.30;;;11.10;;
68509;SDS011;55512;50.102;19.958;2022-10-16T01:05:34;15.60;;;10.40;;
68509;SDS011;55512;50.102;19.958;2022-10-16T01:08:15;19.00;;;11.20;;
68509;SDS011;55512;50.102;19.958;2022-10-16T01:13:42;18.00;;;10.60;;
68509;SDS011;55512;50.102;19.958;2022-10-16T01:16:22;15.90;;;10.30;;
68509;SDS011;55512;50.102;19.958;2022-10-16T01:19:25;15.70;;;10.50;;
68509;SDS011;55512;50.102;19.958;2022-10-16T01:21:52;18.70;;;10.50;;
68509;SDS011;55512;50.102;19.958;2022-10-16T01:27:24;18.50;;;10.40;;
68509;SDS011;55512;50.102;19.958;2022-10-16T01:29:56;19.90;;;11.00;;
68509;SDS011;55512;50.102;19.958;2022-10-16T01:33:01;16.00;;;10.80;;
68509;SDS011;55512;50.102;19.958;2022-10-16T01:35:37;17.10;;;11.00;;
68509;SDS011;55512;50.102;19.958;2022-10-16T01:38:10;15.20;;;10.40;;
68509;SDS011;55512;50.102;19.958;2022-10-16T01:40:45;17.30;;;10.90;;
68509;SDS011;55512;50.102;19.958;2022-10-16T01:43:18;17.70;;;10.30;;
68509;SDS011;55512;50.102;19.958;2022-10-16T01:45:51;15.70;;;11.10;;
68509;SDS011;55512;50.102;19.958;2022-10-16T01:48:19;17.80;;;12.00;;
68509;SDS011;55512;50.102;19.958;2022-10-16T01:50:59;18.40;;;11.70;;
68509;SDS011;55512;50.102;19.958;2022-10-16T01:53:29;15.90;;;10.60;;
68509;SDS011;55512;50.102;19.958;2022-10-16T01:55:57;17.10;;;10.60;;
68509;SDS011;55512;50.102;19.958;2022-10-16T01:58:25;16.00;;;10.60;;
68509;SDS011;55512;50.102;19.958;2022-10-16T02:00:56;17.50;;;11.50;;
68509;SDS011;55512;50.102;19.958;2022-10-16T02:03:21;17.70;;;11.50;;
68509;SDS011;55512;50.102;19.958;2022-10-16T02:05:55;17.20;;;11.70;;
68509;SDS011;55512;50.102;19.958;2022-10-16T02:08:24;16.20;;;11.50;;
68509;SDS011;55512;50.102;19.958;2022-10-16T02:10:55;16.00;;;10.80;;
68509;SDS011;55512;50.102;19.958;2022-10-16T02:13:26;18.60;;;10.80;;
68509;SDS011;55512;50.102;19.958;2022-10-16T02:15:56;16.70;;;10.00;;
68509;SDS011;55512;50.102;19.958;2022-10-16T02:18:22;15.20;;;10.10;;
68509;SDS011;55512;50.102;19.958;2022-10-16T02:20:55;17.70;;;11.20;;
68509;SDS011;55512;50.102;19.958;2022-10-16T02:26:43;14.90;;;11.10;;
68509;SDS011;55512;50.102;19.958;2022-10-16T02:29:18;17.40;;;11.80;;
68509;SDS011;55512;50.102;19.958;2022-10-16T02:31:51;21.00;;;12.10;;
68509;SDS011;55512;50.102;19.958;2022-10-16T02:34:21;20.40;;;12.50;;
68509;SDS011;55512;50.102;19.958;2022-10-16T02:36:50;18.10;;;12.50;;
68509;SDS011;55512;50.102;19.958;2022-10-16T02:39:16;21.80;;;12.70;;
68509;SDS011;55512;50.102;19.958;2022-10-16T02:41:44;20.70;;;12.80;;
68509;SDS011;55512;50.102;19.958;2022-10-16T02:44:10;20.30;;;12.70;;
68509;SDS011;55512;50.102;19.958;2022-10-16T02:46:35;21.20;;;13.30;;
68509;SDS011;55512;50.102;19.958;2022-10-16T02:49:01;20.50;;;13.40;;
68509;SDS011;55512;50.102;19.958;2022-10-16T02:51:26;21.50;;;12.90;;
68509;SDS011;55512;50.102;19.958;2022-10-16T02:53:52;21.00;;;13.00;;
68509;SDS011;55512;50.102;19.958;2022-10-16T02:56:17;21.10;;;13.70;;
68509;SDS011;55512;50.102;19.958;2022-10-16T02:58:42;19.00;;;12.70;;
68509;SDS011;55512;50.102;19.958;2022-10-16T03:01:08;19.40;;;13.60;;
68509;SDS011;55512;50.102;19.958;2022-10-16T03:03:33;20.70;;;12.80;;
68509;SDS011;55512;50.102;19.958;2022-10-16T03:05:59;20.50;;;12.40;;
68509;SDS011;55512;50.102;19.958;2022-10-16T03:08:24;19.90;;;12.50;;
68509;SDS011;55512;50.102;19.958;2022-10-16T03:10:50;17.80;;;12.30;;
68509;SDS011;55512;50.102;19.958;2022-10-16T03:13:17;20.20;;;12.60;;
68509;SDS011;55512;50.102;19.958;2022-10-16T03:15:43;18.50;;;12.60;;
68509;SDS011;55512;50.102;19.958;2022-10-16T03:18:09;20.80;;;12.90;;
68509;SDS011;55512;50.102;19.958;2022-10-16T03:20:34;20.60;;;13.30;;
68509;SDS011;55512;50.102;19.958;2022-10-16T03:22:59;21.30;;;13.70;;
68509;SDS011;55512;50.102;19.958;2022-10-16T03:25:25;18.80;;;13.70;;
68509;SDS011;55512;50.102;19.958;2022-10-16T03:27:50;21.80;;;13.20;;
68509;SDS011;55512;50.102;19.958;2022-10-16T03:30:15;19.10;;;13.60;;
68509;SDS011;55512;50.102;19.958;2022-10-16T03:32:41;23.40;;;14.50;;
68509;SDS011;55512;50.102;19.958;2022-10-16T03:35:08;20.90;;;14.10;;
68509;SDS011;55512;50.102;19.958;2022-10-16T03:37:33;21.70;;;13.10;;
68509;SDS011;55512;50.102;19.958;2022-10-16T03:39:59;23.10;;;13.00;;
68509;SDS011;55512;50.102;19.958;2022-10-16T03:42:24;23.50;;;14.20;;
68509;SDS011;55512;50.102;19.958;2022-10-16T03:44:50;21.30;;;14.00;;
68509;SDS011;55512;50.102;19.958;2022-10-16T03:47:15;21.50;;;13.70;;
68509;SDS011;55512;50.102;19.958;2022-10-16T03:49:40;20.80;;;13.30;;
68509;SDS011;55512;50.102;19.958;2022-10-16T03:52:06;21.60;;;13.60;;
68509;SDS011;55512;50.102;19.958;2022-10-16T03:54:31;21.80;;;14.30;;
68509;SDS011;55512;50.102;19.958;2022-10-16T03:56:57;20.60;;;13.50;;
68509;SDS011;55512;50.102;19.958;2022-10-16T03:59:22;22.70;;;14.30;;
68509;SDS011;55512;50.102;19.958;2022-10-16T04:01:47;20.00;;;13.00;;
68509;SDS011;55512;50.102;19.958;2022-10-16T04:04:13;20.90;;;13.10;;
68509;SDS011;55512;50.102;19.958;2022-10-16T04:06:38;20.20;;;13.20;;
68509;SDS011;55512;50.102;19.958;2022-10-16T04:09:04;20.10;;;13.00;;
68509;SDS011;55512;50.102;19.958;2022-10-16T04:11:29;19.40;;;12.80;;
68509;SDS011;55512;50.102;19.958;2022-10-16T04:13:54;20.60;;;12.90;;
68509;SDS011;55512;50.102;19.958;2022-10-16T04:16:20;18.40;;;12.10;;
68509;SDS011;55512;50.102;19.958;2022-10-16T04:18:45;20.40;;;13.00;;
68509;SDS011;55512;50.102;19.958;2022-10-16T04:21:10;17.90;;;11.70;;
68509;SDS011;55512;50.102;19.958;2022-10-16T04:23:36;20.80;;;12.20;;
68509;SDS011;55512;50.102;19.958;2022-10-16T04:26:01;20.50;;;13.20;;
68509;SDS011;55512;50.102;19.958;2022-10-16T04:28:27;18.30;;;12.80;;
68509;SDS011;55512;50.102;19.958;2022-10-16T04:30:53;19.70;;;12.90;;
68509;SDS011;55512;50.102;19.958;2022-10-16T04:33:19;18.60;;;12.20;;
68509;SDS011;55512;50.102;19.958;2022-10-16T04:35:44;20.90;;;12.90;;
68509;SDS011;55512;50.102;19.958;2022-10-16T04:38:09;18.80;;;11.80;;
68509;SDS011;55512;50.102;19.958;2022-10-16T04:40:35;22.80;;;12.70;;
68509;SDS011;55512;50.102;19.958;2022-10-16T04:43:02;20.80;;;13.40;;
68509;SDS011;55512;50.102;19.958;2022-10-16T04:45:29;19.30;;;11.90;;
68509;SDS011;55512;50.102;19.958;2022-10-16T04:47:58;21.10;;;13.30;;
68509;SDS011;55512;50.102;19.958;2022-10-16T04:50:24;19.20;;;11.70;;
68509;SDS011;55512;50.102;19.958;2022-10-16T04:52:50;19.20;;;12.40;;
68509;SDS011;55512;50.102;19.958;2022-10-16T04:55:15;18.70;;;12.30;;
68509;SDS011;55512;50.102;19.958;2022-10-16T04:57:41;21.10;;;13.40;;
68509;SDS011;55512;50.102;19.958;2022-10-16T05:00:07;19.30;;;12.40;;
68509;SDS011;55512;50.102;19.958;2022-10-16T05:02:33;20.30;;;13.00;;
68509;SDS011;55512;50.102;19.958;2022-10-16T05:04:59;19.20;;;12.30;;
68509;SDS011;55512;50.102;19.958;2022-10-16T05:07:24;19.30;;;12.90;;
68509;SDS011;55512;50.102;19.958;2022-10-16T05:09:50;22.50;;;13.40;;
68509;SDS011;55512;50.102;19.958;2022-10-16T05:12:15;21.50;;;12.60;;
68509;SDS011;55512;50.102;19.958;2022-10-16T05:14:41;22.60;;;13.30;;
68509;SDS011;55512;50.102;19.958;2022-10-16T05:17:06;20.20;;;12.90;;
68509;SDS011;55512;50.102;19.958;2022-10-16T05:19:31;25.40;;;14.10;;
68509;SDS011;55512;50.102;19.958;2022-10-16T05:21:57;18.70;;;12.60;;
68509;SDS011;55512;50.102;19.958;2022-10-16T05:24:22;19.70;;;12.90;;
68509;SDS011;55512;50.102;19.958;2022-10-16T05:26:48;18.50;;;11.60;;
68509;SDS011;55512;50.102;19.958;2022-10-16T05:29:14;21.00;;;12.00;;
68509;SDS011;55512;50.102;19.958;2022-10-16T05:31:39;19.30;;;12.20;;
68509;SDS011;55512;50.102;19.958;2022-10-16T05:34:05;18.30;;;11.70;;
68509;SDS011;55512;50.102;19.958;2022-10-16T05:36:30;19.10;;;11.50;;
68509;SDS011;55512;50.102;19.958;2022-10-16T05:38:55;19.80;;;12.50;;
68509;SDS011;55512;50.102;19.958;2022-10-16T05:41:21;17.80;;;11.30;;
68509;SDS011;55512;50.102;19.958;2022-10-16T05:43:50;19.60;;;12.90;;
68509;SDS011;55512;50.102;19.958;2022-10-16T05:46:16;19.70;;;12.50;;
68509;SDS011;55512;50.102;19.958;2022-10-16T05:48:41;19.50;;;11.90;;
68509;SDS011;55512;50.102;19.958;2022-10-16T05:51:09;19.80;;;12.40;;
68509;SDS011;55512;50.102;19.958;2022-10-16T05:53:37;17.60;;;11.80;;
68509;SDS011;55512;50.102;19.958;2022-10-16T05:56:04;20.90;;;13.20;;
68509;SDS011;55512;50.102;19.958;2022-10-16T05:58:34;18.50;;;11.80;;
68509;SDS011;55512;50.102;19.958;2022-10-16T06:01:07;19.10;;;12.40;;
68509;SDS011;55512;50.102;19.958;2022-10-16T06:03:35;19.20;;;11.20;;
68509;SDS011;55512;50.102;19.958;2022-10-16T06:06:27;17.60;;;12.50;;
68509;SDS011;55512;50.102;19.958;2022-10-16T06:08:54;21.30;;;13.90;;
68509;SDS011;55512;50.102;19.958;2022-10-16T06:11:23;22.50;;;13.50;;
68509;SDS011;55512;50.102;19.958;2022-10-16T06:13:58;21.20;;;12.40;;
68509;SDS011;55512;50.102;19.958;2022-10-16T06:16:35;21.10;;;12.70;;
68509;SDS011;55512;50.102;19.958;2022-10-16T06:19:03;21.80;;;13.80;;
68509;SDS011;55512;50.102;19.958;2022-10-16T06:21:31;21.60;;;12.90;;
68509;SDS011;55512;50.102;19.958;2022-10-16T06:23:57;19.20;;;13.30;;
68509;SDS011;55512;50.102;19.958;2022-10-16T06:26:26;23.00;;;13.30;;
68509;SDS011;55512;50.102;19.958;2022-10-16T06:28:54;20.30;;;13.30;;
68509;SDS011;55512;50.102;19.958;2022-10-16T06:31:22;20.60;;;13.20;;
68509;SDS011;55512;50.102;19.958;2022-10-16T06:33:51;20.20;;;13.70;;
68509;SDS011;55512;50.102;19.958;2022-10-16T06:36:17;21.00;;;12.40;;
68509;SDS011;55512;50.102;19.958;2022-10-16T06:38:43;19.40;;;13.20;;
68509;SDS011;55512;50.102;19.958;2022-10-16T06:41:12;21.40;;;13.10;;
68509;SDS011;55512;50.102;19.958;2022-10-16T06:43:39;20.00;;;13.80;;
68509;SDS011;55512;50.102;19.958;2022-10-16T06:46:06;22.20;;;13.20;;
68509;SDS011;55512;50.102;19.958;2022-10-16T06:48:35;21.80;;;13.80;;
68509;SDS011;55512;50.102;19.958;2022-10-16T06:51:06;20.10;;;13.20;;
68509;SDS011;55512;50.102;19.958;2022-10-16T06:53:44;21.40;;;13.40;;
68509;SDS011;55512;50.102;19.958;2022-10-16T06:58:44;19.50;;;12.90;;
68509;SDS011;55512;50.102;19.958;2022-10-16T07:01:11;21.30;;;13.40;;
68509;SDS011;55512;50.102;19.958;2022-10-16T07:03:38;21.80;;;13.90;;
68509;SDS011;55512;50.102;19.958;2022-10-16T07:06:06;23.10;;;14.20;;
68509;SDS011;55512;50.102;19.958;2022-10-16T07:08:34;19.40;;;13.10;;
68509;SDS011;55512;50.102;19.958;2022-10-16T07:11:03;21.80;;;13.40;;
68509;SDS011;55512;50.102;19.958;2022-10-16T07:13:34;22.90;;;13.00;;
68509;SDS011;55512;50.102;19.958;2022-10-16T07:16:12;21.80;;;13.30;;
68509;SDS011;55512;50.102;19.958;2022-10-16T07:18:40;21.30;;;13.20;;
68509;SDS011;55512;50.102;19.958;2022-10-16T07:21:10;19.20;;;12.90;;
68509;SDS011;55512;50.102;19.958;2022-10-16T07:23:37;19.30;;;12.50;;
68509;SDS011;55512;50.102;19.958;2022-10-16T07:26:04;21.30;;;12.80;;
68509;SDS011;55512;50.102;19.958;2022-10-16T07:28:32;18.30;;;12.70;;
68509;SDS011;55512;50.102;19.958;2022-10-16T07:31:09;20.00;;;13.60;;
68509;SDS011;55512;50.102;19.958;2022-10-16T07:33:37;17.00;;;11.60;;
68509;SDS011;55512;50.102;19.958;2022-10-16T07:36:05;19.80;;;12.70;;
68509;SDS011;55512;50.102;19.958;2022-10-16T07:38:31;17.70;;;11.40;;
68509;SDS011;55512;50.102;19.958;2022-10-16T07:41:01;17.40;;;12.00;;
68509;SDS011;55512;50.102;19.958;2022-10-16T07:43:31;18.20;;;11.30;;
68509;SDS011;55512;50.102;19.958;2022-10-16T07:45:57;16.00;;;10.30;;
68509;SDS011;55512;50.102;19.958;2022-10-16T07:48:24;17.60;;;11.20;;
68509;SDS011;55512;50.102;19.958;2022-10-16T07:50:52;17.30;;;10.70;;
68509;SDS011;55512;50.102;19.958;2022-10-16T07:53:17;15.50;;;10.30;;
68509;SDS011;55512;50.102;19.958;2022-10-16T07:55:42;15.80;;;10.00;;
68509;SDS011;55512;50.102;19.958;2022-10-16T07:58:08;14.40;;;9.40;;
68509;SDS011;55512;50.102;19.958;2022-10-16T08:00:36;14.20;;;8.30;;
68509;SDS011;55512;50.102;19.958;2022-10-16T08:03:02;15.00;;;9.10;;
68509;SDS011;55512;50.102;19.958;2022-10-16T08:05:29;13.30;;;8.60;;
68509;SDS011;55512;50.102;19.958;2022-10-16T08:07:56;14.80;;;9.20;;
68509;SDS011;55512;50.102;19.958;2022-10-16T08:10:24;15.10;;;9.60;;
68509;SDS011;55512;50.102;19.958;2022-10-16T08:12:52;14.80;;;8.50;;
68509;SDS011;55512;50.102;19.958;2022-10-16T08:15:18;13.00;;;8.10;;
68509;SDS011;55512;50.102;19.958;2022-10-16T08:17:44;11.60;;;7.90;;
68509;SDS011;55512;50.102;19.958;2022-10-16T08:20:10;13.20;;;7.90;;
68509;SDS011;55512;50.102;19.958;2022-10-16T08:22:36;11.60;;;7.20;;
68509;SDS011;55512;50.102;19.958;2022-10-16T08:25:02;12.40;;;7.40;;
68509;SDS011;55512;50.102;19.958;2022-10-16T08:27:34;11.20;;;6.30;;
68509;SDS011;55512;50.102;19.958;2022-10-16T08:29:59;11.20;;;6.70;;
68509;SDS011;55512;50.102;19.958;2022-10-16T08:32:25;11.60;;;6.90;;
68509;SDS011;55512;50.102;19.958;2022-10-16T08:34:50;11.40;;;6.30;;
68509;SDS011;55512;50.102;19.958;2022-10-16T08:37:15;10.20;;;6.60;;
68509;SDS011;55512;50.102;19.958;2022-10-16T08:39:41;12.80;;;7.50;;
68509;SDS011;55512;50.102;19.958;2022-10-16T08:42:30;11.10;;;6.80;;
68509;SDS011;55512;50.102;19.958;2022-10-16T08:45:49;9.90;;;5.90;;
68509;SDS011;55512;50.102;19.958;2022-10-16T08:48:42;10.50;;;6.10;;
68509;SDS011;55512;50.102;19.958;2022-10-16T08:51:11;11.50;;;6.00;;
68509;SDS011;55512;50.102;19.958;2022-10-16T08:54:05;11.10;;;6.40;;
68509;SDS011;55512;50.102;19.958;2022-10-16T08:56:39;11.10;;;6.50;;
68509;SDS011;55512;50.102;19.958;2022-10-16T08:59:09;12.50;;;7.40;;
68509;SDS011;55512;50.102;19.958;2022-10-16T09:01:49;9.70;;;6.60;;
68509;SDS011;55512;50.102;19.958;2022-10-16T09:10:39;9.70;;;6.40;;
68509;SDS011;55512;50.102;19.958;2022-10-16T09:13:29;10.60;;;6.20;;
68509;SDS011;55512;50.102;19.958;2022-10-16T09:21:56;10.80;;;6.90;;
68509;SDS011;55512;50.102;19.958;2022-10-16T09:24:25;10.30;;;6.20;;
68509;SDS011;55512;50.102;19.958;2022-10-16T09:26:51;10.90;;;6.20;;
68509;SDS011;55512;50.102;19.958;2022-10-16T09:29:19;12.10;;;7.50;;
68509;SDS011;55512;50.102;19.958;2022-10-16T09:31:47;10.40;;;6.10;;
68509;SDS011;55512;50.102;19.958;2022-10-16T09:34:32;10.00;;;6.30;;
68509;SDS011;55512;50.102;19.958;2022-10-16T09:37:03;10.50;;;6.60;;
68509;SDS011;55512;50.102;19.958;2022-10-16T09:39:48;9.80;;;6.20;;
68509;SDS011;55512;50.102;19.958;2022-10-16T09:42:36;10.60;;;6.20;;
68509;SDS011;55512;50.102;19.958;2022-10-16T09:45:03;10.50;;;6.70;;
68509;SDS011;55512;50.102;19.958;2022-10-16T09:47:31;11.10;;;6.30;;
68509;SDS011;55512;50.102;19.958;2022-10-16T09:50:04;11.10;;;6.70;;
68509;SDS011;55512;50.102;19.958;2022-10-16T09:52:44;11.00;;;6.30;;
68509;SDS011;55512;50.102;19.958;2022-10-16T09:55:15;10.20;;;6.10;;
68509;SDS011;55512;50.102;19.958;2022-10-16T09:57:50;11.10;;;6.80;;
68509;SDS011;55512;50.102;19.958;2022-10-16T10:00:17;10.70;;;6.00;;
68509;SDS011;55512;50.102;19.958;2022-10-16T10:02:44;10.90;;;5.90;;
68509;SDS011;55512;50.102;19.958;2022-10-16T10:05:25;9.30;;;6.50;;
68509;SDS011;55512;50.102;19.958;2022-10-16T10:07:58;9.40;;;6.20;;
68509;SDS011;55512;50.102;19.958;2022-10-16T10:10:30;11.40;;;6.60;;
68509;SDS011;55512;50.102;19.958;2022-10-16T10:12:57;10.80;;;6.30;;
68509;SDS011;55512;50.102;19.958;2022-10-16T10:15:24;13.10;;;6.50;;
68509;SDS011;55512;50.102;19.958;2022-10-16T10:17:56;8.90;;;5.50;;
68509;SDS011;55512;50.102;19.958;2022-10-16T10:20:34;9.70;;;5.60;;
68509;SDS011;55512;50.102;19.958;2022-10-16T10:23:23;11.10;;;5.70;;
68509;SDS011;55512;50.102;19.958;2022-10-16T10:26:15;10.60;;;6.10;;
68509;SDS011;55512;50.102;19.958;2022-10-16T10:28:53;8.50;;;5.20;;
68509;SDS011;55512;50.102;19.958;2022-10-16T10:31:39;9.90;;;5.90;;
68509;SDS011;55512;50.102;19.958;2022-10-16T10:37:26;9.50;;;6.00;;
68509;SDS011;55512;50.102;19.958;2022-10-16T10:40:28;10.00;;;6.00;;
68509;SDS011;55512;50.102;19.958;2022-10-16T10:43:23;9.00;;;6.10;;
68509;SDS011;55512;50.102;19.958;2022-10-16T10:45:58;10.40;;;6.50;;
68509;SDS011;55512;50.102;19.958;2022-10-16T10:48:54;10.40;;;5.90;;
68509;SDS011;55512;50.102;19.958;2022-10-16T10:51:39;9.40;;;6.20;;
68509;SDS011;55512;50.102;19.958;2022-10-16T10:54:20;10.40;;;6.30;;
68509;SDS011;55512;50.102;19.958;2022-10-16T10:57:09;11.50;;;6.00;;
68509;SDS011;55512;50.102;19.958;2022-10-16T11:02:18;9.50;;;5.70;;
68509;SDS011;55512;50.102;19.958;2022-10-16T11:05:33;9.70;;;6.00;;
68509;SDS011;55512;50.102;19.958;2022-10-16T11:08:22;9.60;;;5.50;;
68509;SDS011;55512;50.102;19.958;2022-10-16T11:11:14;8.70;;;5.40;;
68509;SDS011;55512;50.102;19.958;2022-10-16T11:14:01;8.60;;;5.60;;
68509;SDS011;55512;50.102;19.958;2022-10-16T11:17:14;8.40;;;5.60;;
68509;SDS011;55512;50.102;19.958;2022-10-16T11:19:48;8.70;;;5.30;;
68509;SDS011;55512;50.102;19.958;2022-10-16T11:22:30;8.20;;;5.50;;
68509;SDS011;55512;50.102;19.958;2022-10-16T11:25:21;8.60;;;5.40;;
68509;SDS011;55512;50.102;19.958;2022-10-16T11:30:50;9.00;;;5.70;;
68509;SDS011;55512;50.102;19.958;2022-10-16T11:38:58;9.60;;;5.30;;
68509;SDS011;55512;50.102;19.958;2022-10-16T11:47:35;9.00;;;5.40;;
68509;SDS011;55512;50.102;19.958;2022-10-16T11:50:53;8.00;;;5.10;;
68509;SDS011;55512;50.102;19.958;2022-10-16T11:56:00;9.30;;;5.50;;
68509;SDS011;55512;50.102;19.958;2022-10-16T12:04:01;9.30;;;5.80;;
68509;SDS011;55512;50.102;19.958;2022-10-16T12:06:47;8.30;;;5.00;;
68509;SDS011;55512;50.102;19.958;2022-10-16T12:09:32;10.00;;;5.40;;
68509;SDS011;55512;50.102;19.958;2022-10-16T12:12:02;7.90;;;5.30;;
68509;SDS011;55512;50.102;19.958;2022-10-16T12:17:24;9.30;;;5.30;;
68509;SDS011;55512;50.102;19.958;2022-10-16T12:20:00;8.90;;;5.30;;
68509;SDS011;55512;50.102;19.958;2022-10-16T12:22:51;9.00;;;5.20;;
68509;SDS011;55512;50.102;19.958;2022-10-16T12:30:30;10.10;;;5.50;;
68509;SDS011;55512;50.102;19.958;2022-10-16T12:33:00;8.50;;;5.00;;
68509;SDS011;55512;50.102;19.958;2022-10-16T12:35:46;9.00;;;4.20;;
68509;SDS011;55512;50.102;19.958;2022-10-16T12:38:19;7.40;;;3.60;;
68509;SDS011;55512;50.102;19.958;2022-10-16T12:41:00;7.00;;;3.10;;
68509;SDS011;55512;50.102;19.958;2022-10-16T12:43:45;6.90;;;3.80;;
68509;SDS011;55512;50.102;19.958;2022-10-16T12:48:40;9.00;;;3.50;;
68509;SDS011;55512;50.102;19.958;2022-10-16T12:51:39;8.90;;;4.60;;
68509;SDS011;55512;50.102;19.958;2022-10-16T12:54:14;8.60;;;3.90;;
68509;SDS011;55512;50.102;19.958;2022-10-16T12:59:43;7.70;;;3.60;;
68509;SDS011;55512;50.102;19.958;2022-10-16T13:05:38;7.00;;;3.90;;
68509;SDS011;55512;50.102;19.958;2022-10-16T13:11:37;6.40;;;3.30;;
68509;SDS011;55512;50.102;19.958;2022-10-16T13:20:31;6.70;;;3.70;;
68509;SDS011;55512;50.102;19.958;2022-10-16T13:23:08;8.10;;;3.70;;
68509;SDS011;55512;50.102;19.958;2022-10-16T13:26:17;5.80;;;3.10;;
68509;SDS011;55512;50.102;19.958;2022-10-16T13:28:46;6.20;;;3.20;;
68509;SDS011;55512;50.102;19.958;2022-10-16T13:31:21;7.00;;;4.20;;
68509;SDS011;55512;50.102;19.958;2022-10-16T13:33:54;7.90;;;4.10;;
68509;SDS011;55512;50.102;19.958;2022-10-16T13:36:26;5.90;;;3.10;;
68509;SDS011;55512;50.102;19.958;2022-10-16T13:39:27;6.40;;;3.20;;
68509;SDS011;55512;50.102;19.958;2022-10-16T13:44:26;6.00;;;3.00;;
68509;SDS011;55512;50.102;19.958;2022-10-16T13:47:02;7.70;;;3.90;;
68509;SDS011;55512;50.102;19.958;2022-10-16T13:49:28;7.30;;;3.50;;
68509;SDS011;55512;50.102;19.958;2022-10-16T13:51:58;7.10;;;3.70;;
68509;SDS011;55512;50.102;19.958;2022-10-16T13:54:26;6.60;;;3.40;;
68509;SDS011;55512;50.102;19.958;2022-10-16T13:56:53;6.40;;;3.50;;
68509;SDS011;55512;50.102;19.958;2022-10-16T14:01:54;6.40;;;3.20;;
68509;SDS011;55512;50.102;19.958;2022-10-16T14:04:21;6.90;;;3.30;;
68509;SDS011;55512;50.102;19.958;2022-10-16T14:06:50;7.20;;;3.30;;
68509;SDS011;55512;50.102;19.958;2022-10-16T14:09:23;7.10;;;4.00;;
68509;SDS011;55512;50.102;19.958;2022-10-16T14:11:58;6.20;;;3.70;;
68509;SDS011;55512;50.102;19.958;2022-10-16T14:14:32;7.60;;;3.70;;
68509;SDS011;55512;50.102;19.958;2022-10-16T14:17:02;7.20;;;3.70;;
68509;SDS011;55512;50.102;19.958;2022-10-16T14:19:29;6.60;;;3.70;;
68509;SDS011;55512;50.102;19.958;2022-10-16T14:22:14;7.00;;;3.80;;
68509;SDS011;55512;50.102;19.958;2022-10-16T14:24:49;6.90;;;3.80;;
68509;SDS011;55512;50.102;19.958;2022-10-16T14:27:34;7.90;;;3.90;;
68509;SDS011;55512;50.102;19.958;2022-10-16T14:30:14;8.30;;;3.60;;
68509;SDS011;55512;50.102;19.958;2022-10-16T14:32:59;7.60;;;3.70;;
68509;SDS011;55512;50.102;19.958;2022-10-16T14:35:35;6.30;;;3.50;;
68509;SDS011;55512;50.102;19.958;2022-10-16T14:38:03;7.00;;;3.80;;
68509;SDS011;55512;50.102;19.958;2022-10-16T14:40:36;6.80;;;4.50;;
68509;SDS011;55512;50.102;19.958;2022-10-16T14:43:04;7.30;;;4.40;;
68509;SDS011;55512;50.102;19.958;2022-10-16T14:45:32;6.80;;;4.30;;
68509;SDS011;55512;50.102;19.958;2022-10-16T14:48:04;7.10;;;4.20;;
68509;SDS011;55512;50.102;19.958;2022-10-16T14:50:39;6.80;;;4.00;;
68509;SDS011;55512;50.102;19.958;2022-10-16T14:53:11;7.00;;;4.70;;
68509;SDS011;55512;50.102;19.958;2022-10-16T14:55:38;6.00;;;3.90;;
68509;SDS011;55512;50.102;19.958;2022-10-16T14:58:04;7.20;;;4.30;;
68509;SDS011;55512;50.102;19.958;2022-10-16T15:00:30;6.50;;;3.90;;
68509;SDS011;55512;50.102;19.958;2022-10-16T15:02:55;7.00;;;4.40;;
68509;SDS011;55512;50.102;19.958;2022-10-16T15:05:26;6.30;;;3.60;;
68509;SDS011;55512;50.102;19.958;2022-10-16T15:07:54;6.90;;;4.30;;
68509;SDS011;55512;50.102;19.958;2022-10-16T15:10:22;5.70;;;3.80;;
68509;SDS011;55512;50.102;19.958;2022-10-16T15:12:49;6.90;;;4.20;;
68509;SDS011;55512;50.102;19.958;2022-10-16T15:18:09;7.80;;;4.70;;
68509;SDS011;55512;50.102;19.958;2022-10-16T15:20:36;7.30;;;4.20;;
68509;SDS011;55512;50.102;19.958;2022-10-16T15:23:13;6.60;;;4.20;;
68509;SDS011;55512;50.102;19.958;2022-10-16T15:25:50;7.50;;;4.80;;
68509;SDS011;55512;50.102;19.958;2022-10-16T15:28:18;7.40;;;5.30;;
68509;SDS011;55512;50.102;19.958;2022-10-16T15:30:45;7.10;;;4.30;;
68509;SDS011;55512;50.102;19.958;2022-10-16T15:33:16;8.90;;;4.20;;
68509;SDS011;55512;50.102;19.958;2022-10-16T15:35:47;9.80;;;4.70;;
68509;SDS011;55512;50.102;19.958;2022-10-16T15:38:14;7.70;;;4.00;;
68509;SDS011;55512;50.102;19.958;2022-10-16T15:40:40;7.40;;;4.50;;
68509;SDS011;55512;50.102;19.958;2022-10-16T15:43:06;10.00;;;6.40;;
68509;SDS011;55512;50.102;19.958;2022-10-16T15:45:32;7.60;;;4.30;;
68509;SDS011;55512;50.102;19.958;2022-10-16T15:47:58;8.40;;;4.40;;
68509;SDS011;55512;50.102;19.958;2022-10-16T15:50:23;7.80;;;4.20;;
68509;SDS011;55512;50.102;19.958;2022-10-16T15:52:50;8.10;;;3.90;;
68509;SDS011;55512;50.102;19.958;2022-10-16T15:55:16;7.80;;;4.20;;
68509;SDS011;55512;50.102;19.958;2022-10-16T15:57:43;8.60;;;5.10;;
68509;SDS011;55512;50.102;19.958;2022-10-16T16:00:13;9.00;;;4.10;;
68509;SDS011;55512;50.102;19.958;2022-10-16T16:02:41;13.00;;;6.10;;
68509;SDS011;55512;50.102;19.958;2022-10-16T16:05:09;14.10;;;6.60;;
68509;SDS011;55512;50.102;19.958;2022-10-16T16:07:37;10.90;;;5.60;;
68509;SDS011;55512;50.102;19.958;2022-10-16T16:10:07;8.40;;;5.00;;
68509;SDS011;55512;50.102;19.958;2022-10-16T16:12:35;8.20;;;3.90;;